Time;durP1;ratioP1;P1;durP2;ratioP2;P2;SDS_P1;SDS_P2;PMS_P1;PMS_P2;Temp;Humidity;BMP_temperature;BMP_pressure;BME280_temperature;BME280_humidity;BME280_pressure;Samples;Min_cycle;Max_cycle;Signal;HPM_P1;HPM_P2
2021/12/14 00:01:49;;;;;;;0.30;0.20;;;;;;;7.95;100.00;101399.31;5032741;28;20510;-51
2021/12/14 00:04:21;;;;;;;0.30;0.20;;;;;;;7.95;100.00;101407.25;5032875;28;20475;-51
2021/12/14 00:06:49;;;;;;;0.30;0.20;;;;;;;8.02;100.00;101404.56;5032691;28;20994;-51
2021/12/14 00:09:33;;;;;;;0.30;0.20;;;;;;;7.87;100.00;101401.94;5032748;28;20475;-51
2021/12/14 00:17:09;;;;;;;0.30;0.20;;;;;;;7.66;100.00;101401.91;5032424;28;20968;-51
2021/12/14 00:19:36;;;;;;;0.30;0.20;;;;;;;7.78;100.00;101401.91;5032516;28;20486;-50
2021/12/14 00:22:18;;;;;;;1.33;0.50;;;;;;;7.84;100.00;101391.34;5031120;28;20525;-51
2021/12/14 00:24:46;;;;;;;0.30;0.20;;;;;;;7.86;100.00;101394.88;5032265;28;20501;-51
2021/12/14 00:27:17;;;;;;;0.30;0.20;;;;;;;7.86;100.00;101401.94;5032183;28;20451;-51
2021/12/14 00:29:47;;;;;;;0.30;0.20;;;;;;;7.81;100.00;101399.28;5044093;28;20467;-51
2021/12/14 00:32:19;;;;;;;0.30;0.20;;;;;;;7.78;100.00;101399.25;5033558;28;20467;-51
2021/12/14 00:34:48;;;;;;;0.30;0.20;;;;;;;7.78;100.00;101393.97;5032424;28;20489;-51
2021/12/14 00:37:21;;;;;;;0.20;0.20;;;;;;;7.76;100.00;101393.09;5032107;28;20824;-51
2021/12/14 00:39:51;;;;;;;0.30;0.20;;;;;;;7.82;100.00;101393.13;5032427;28;20471;-51
2021/12/14 00:42:18;;;;;;;0.30;0.20;;;;;;;7.86;100.00;101397.53;5032556;28;20484;-51
2021/12/14 00:44:45;;;;;;;0.30;0.20;;;;;;;7.86;100.00;101392.22;5032225;28;20837;-51
2021/12/14 00:47:12;;;;;;;0.30;0.20;;;;;;;7.83;100.00;101394.88;5032368;28;20867;-51
2021/12/14 00:49:40;;;;;;;0.30;0.20;;;;;;;7.84;100.00;101399.28;5032131;28;20462;-51
2021/12/14 00:52:08;;;;;;;0.30;0.20;;;;;;;7.83;100.00;101394.00;5031977;28;20438;-51
2021/12/14 00:54:36;;;;;;;0.30;0.20;;;;;;;7.83;100.00;101391.34;5032102;28;20519;-51
2021/12/14 00:57:05;;;;;;;0.30;0.20;;;;;;;7.84;100.00;101388.69;5032727;28;20876;-51
2021/12/14 00:59:32;;;;;;;0.30;0.20;;;;;;;7.95;100.00;101392.22;5036570;28;20451;-51
2021/12/14 01:02:25;;;;;;;0.30;0.20;;;;;;;7.90;100.00;101399.28;5036537;28;20467;-51
2021/12/14 01:04:58;;;;;;;0.30;0.20;;;;;;;7.88;100.00;101402.81;5034946;28;20502;-51
2021/12/14 01:07:30;;;;;;;0.30;0.20;;;;;;;7.95;100.00;101407.25;5036073;28;20483;-51
2021/12/14 01:10:00;;;;;;;0.63;0.63;;;;;;;7.97;100.00;101405.47;5036087;28;20505;-50
2021/12/14 01:12:56;;;;;;;0.63;0.60;;;;;;;7.95;100.00;101401.94;5035701;28;20513;-51
2021/12/14 01:21:44;;;;;;;0.30;0.20;;;;;;;7.88;100.00;101403.69;5022946;28;20451;-50
2021/12/14 01:24:24;;;;;;;0.30;0.20;;;;;;;7.86;100.00;101402.81;5035514;28;20479;-51
2021/12/14 01:26:51;;;;;;;0.30;0.20;;;;;;;7.74;100.00;101400.16;5035708;28;20471;-51
2021/12/14 01:29:19;;;;;;;0.30;0.20;;;;;;;7.75;100.00;101396.63;5043165;28;20443;-51
2021/12/14 01:31:49;;;;;;;0.30;0.20;;;;;;;7.70;100.00;101390.47;5040765;28;20536;-51
2021/12/14 01:34:20;;;;;;;0.60;0.60;;;;;;;7.70;100.00;101393.97;5035279;28;20510;-51
2021/12/14 01:36:52;;;;;;;0.30;0.20;;;;;;;7.76;100.00;101401.03;5035326;28;20988;-51
2021/12/14 01:42:07;;;;;;;0.30;0.20;;;;;;;7.89;100.00;101421.34;5035101;28;20475;-51
2021/12/14 01:44:47;;;;;;;0.30;0.30;;;;;;;7.88;100.00;101416.03;5035444;28;20422;-51
2021/12/14 01:47:22;;;;;;;0.30;0.20;;;;;;;7.85;100.00;101427.53;5024026;28;20469;-51
2021/12/14 01:49:49;;;;;;;0.57;0.57;;;;;;;7.84;100.00;101425.75;5035184;28;20450;-51
2021/12/14 01:52:23;;;;;;;0.30;0.20;;;;;;;7.77;100.00;101425.72;5034940;28;20463;-50
2021/12/14 01:54:54;;;;;;;0.30;0.20;;;;;;;7.75;100.00;101424.84;5035223;28;20486;-51
2021/12/14 01:57:23;;;;;;;0.30;0.20;;;;;;;7.81;100.00;101422.19;5035240;28;20444;-51
2021/12/14 01:59:55;;;;;;;0.30;0.20;;;;;;;7.82;100.00;101426.66;5035022;28;20520;-51
2021/12/14 02:02:40;;;;;;;0.30;0.20;;;;;;;7.84;100.00;101438.09;5034879;28;20940;-51
2021/12/14 02:05:23;;;;;;;0.43;0.40;;;;;;;7.84;100.00;101427.53;5024313;28;20872;-51
2021/12/14 02:07:50;;;;;;;0.30;0.20;;;;;;;7.82;100.00;101429.28;5034603;28;20452;-51
2021/12/14 02:10:25;;;;;;;0.80;0.77;;;;;;;7.82;100.00;101427.53;5034954;28;20498;-51
2021/12/14 02:12:52;;;;;;;0.70;0.70;;;;;;;7.89;100.00;101426.63;5034754;28;20464;-51
2021/12/14 02:15:29;;;;;;;0.30;0.30;;;;;;;7.90;100.00;101436.34;5033249;28;20462;-51
2021/12/14 02:17:59;;;;;;;0.30;0.20;;;;;;;7.91;100.00;101426.63;5034673;28;20474;-51
2021/12/14 02:20:30;;;;;;;0.30;0.20;;;;;;;7.85;100.00;101416.06;5034715;28;20446;-51
2021/12/14 02:22:59;;;;;;;0.30;0.20;;;;;;;7.90;100.00;101414.28;5034610;28;20471;-51
2021/12/14 02:25:27;;;;;;;0.30;0.20;;;;;;;7.88;100.00;101414.28;5034376;28;20448;-51
2021/12/14 02:27:58;;;;;;;0.30;0.30;;;;;;;7.82;100.00;101418.69;5034798;28;20491;-51
2021/12/14 02:30:28;;;;;;;0.30;0.20;;;;;;;7.77;100.00;101423.09;5048013;28;20489;-51
2021/12/14 02:32:56;;;;;;;0.30;0.20;;;;;;;8.05;100.00;101413.41;5034347;28;20499;-51
2021/12/14 02:35:26;;;;;;;0.30;0.20;;;;;;;7.95;100.00;101413.41;5034235;28;20537;-51
2021/12/14 02:37:57;;;;;;;0.30;0.20;;;;;;;7.87;100.00;101404.56;5034288;28;20952;-51
2021/12/14 02:40:53;;;;;;;6.00;3.60;;;;;;;7.80;100.00;101409.84;5034094;28;20509;-51
2021/12/14 02:43:26;;;;;;;0.30;0.20;;;;;;;7.87;100.00;101403.69;5033739;28;20996;-51
2021/12/14 02:46:00;;;;;;;0.30;0.20;;;;;;;7.80;100.00;101397.50;5034181;28;20490;-51
2021/12/14 02:48:27;;;;;;;0.30;0.20;;;;;;;7.83;100.00;101405.47;5034098;28;20443;-50
2021/12/14 02:50:54;;;;;;;0.30;0.20;;;;;;;7.79;100.00;101393.09;5034430;28;20451;-50
2021/12/14 02:53:21;;;;;;;0.30;0.20;;;;;;;7.75;100.00;101388.69;5034061;28;20475;-51
2021/12/14 02:55:47;;;;;;;0.30;0.20;;;;;;;7.77;100.00;101380.75;5034198;28;20909;-50
2021/12/14 02:58:14;;;;;;;0.30;0.30;;;;;;;7.69;100.00;101379.00;5034129;28;20894;-50
2021/12/14 03:00:47;;;;;;;0.30;0.20;;;;;;;7.61;100.00;101374.56;5034450;28;20455;-50
2021/12/14 03:03:14;;;;;;;0.50;0.50;;;;;;;7.70;100.00;101371.94;5033942;28;21011;-51
2021/12/14 03:05:43;;;;;;;0.30;0.20;;;;;;;7.75;100.00;101379.88;5033988;28;20945;-51
2021/12/14 03:08:16;;;;;;;0.30;0.20;;;;;;;7.78;100.00;101375.44;5020909;28;20447;-50
2021/12/14 03:10:56;;;;;;;0.43;0.43;;;;;;;7.78;100.00;101374.56;5033800;28;20452;-50
2021/12/14 03:13:29;;;;;;;0.87;0.87;;;;;;;7.81;100.00;101372.81;5033560;28;20498;-50
2021/12/14 03:15:59;;;;;;;0.30;0.20;;;;;;;7.71;100.00;101381.63;5033646;28;20492;-50
2021/12/14 03:18:32;;;;;;;0.30;0.20;;;;;;;7.63;100.00;101383.38;5033613;28;20475;-51
2021/12/14 03:21:12;;;;;;;0.30;0.20;;;;;;;7.70;100.00;101379.88;5033012;28;20447;-50
2021/12/14 03:23:43;;;;;;;0.30;0.23;;;;;;;7.80;100.00;101376.31;5033224;28;20888;-51
2021/12/14 03:26:13;;;;;;;0.30;0.20;;;;;;;7.82;100.00;101379.00;5033293;28;20448;-51
2021/12/14 03:28:45;;;;;;;0.30;0.20;;;;;;;7.81;100.00;101386.06;5035633;28;20971;-51
2021/12/14 03:31:30;;;;;;;0.30;0.20;;;;;;;7.77;100.00;101378.09;5042980;28;21015;-51
2021/12/14 03:34:09;;;;;;;0.47;0.40;;;;;;;7.71;100.00;101371.06;5033072;28;20456;-50
2021/12/14 03:36:42;;;;;;;0.30;0.20;;;;;;;7.58;100.00;101379.84;5032846;28;20565;-51
2021/12/14 03:39:14;;;;;;;0.30;0.20;;;;;;;8.01;100.00;101391.34;5033134;28;20418;-50
2021/12/14 03:41:48;;;;;;;0.30;0.20;;;;;;;7.92;100.00;101391.31;5032654;28;20540;-51
2021/12/14 03:44:17;;;;;;;0.30;0.30;;;;;;;7.83;100.00;101384.28;5033047;28;20443;-51
2021/12/14 03:46:44;;;;;;;0.30;0.20;;;;;;;7.60;100.00;101375.44;5032619;28;20984;-51
2021/12/14 03:49:11;;;;;;;0.30;0.20;;;;;;;7.60;100.00;101368.38;5032757;28;20505;-50
2021/12/14 03:51:38;;;;;;;0.30;0.30;;;;;;;7.48;100.00;101367.50;5032578;28;20998;-51
2021/12/14 03:54:06;;;;;;;0.30;0.20;;;;;;;7.45;100.00;101368.38;5032688;28;20981;-51
2021/12/14 03:56:32;;;;;;;0.23;0.20;;;;;;;7.47;100.00;101353.38;5032615;28;20519;-51
2021/12/14 03:58:59;;;;;;;0.53;0.53;;;;;;;7.51;100.00;101351.63;5032581;28;21018;-51
2021/12/14 04:01:36;;;;;;;0.30;0.20;;;;;;;7.63;100.00;101359.56;5032476;28;20479;-51
2021/12/14 04:04:19;;;;;;;0.30;0.20;;;;;;;7.71;100.00;101366.63;5032624;28;20831;-51
2021/12/14 04:06:50;;;;;;;0.30;0.20;;;;;;;7.80;100.00;101371.03;5032497;28;20443;-51
2021/12/14 04:09:19;;;;;;;0.30;0.20;;;;;;;7.92;100.00;101376.31;5032506;28;20444;-51
2021/12/14 04:11:46;;;;;;;0.30;0.20;;;;;;;7.85;100.00;101368.41;5032277;28;20472;-51
2021/12/14 04:14:14;;;;;;;0.33;0.27;;;;;;;7.79;100.00;101356.03;5032517;28;20531;-51
2021/12/14 04:16:45;;;;;;;0.23;0.20;;;;;;;7.65;100.00;101348.09;5032202;28;20569;-51
2021/12/14 04:19:20;;;;;;;0.77;0.77;;;;;;;7.66;100.00;101349.84;5032458;28;20506;-51
2021/12/14 04:21:47;;;;;;;0.30;0.20;;;;;;;7.67;100.00;101338.38;5032396;28;20521;-51
2021/12/14 04:24:19;;;;;;;0.83;0.83;;;;;;;7.59;100.00;101342.81;5031996;28;20532;-51
2021/12/14 04:26:47;;;;;;;0.30;0.20;;;;;;;7.72;100.00;101330.47;5032566;28;20494;-51
2021/12/14 04:29:14;;;;;;;0.30;0.30;;;;;;;7.54;100.00;101317.22;5039046;28;20479;-51
2021/12/14 04:31:43;;;;;;;0.40;0.40;;;;;;;7.48;100.00;101319.88;5037066;28;20907;-51
2021/12/14 04:34:10;;;;;;;0.30;0.20;;;;;;;7.63;100.00;101319.88;5032226;28;20447;-51
2021/12/14 04:36:39;;;;;;;0.30;0.20;;;;;;;7.56;100.00;101310.19;5031815;28;20534;-56
2021/12/14 04:53:10;;;;;;;0.30;0.20;;;;;;;7.73;100.00;101271.38;5032207;28;20467;-50
2021/12/14 04:55:38;;;;;;;0.30;0.20;;;;;;;7.81;100.00;101273.97;5031890;28;20491;-51
2021/12/14 04:58:05;;;;;;;0.30;0.20;;;;;;;7.89;100.00;101280.16;5031747;28;20979;-51
2021/12/14 05:00:38;;;;;;;0.30;0.20;;;;;;;7.93;100.00;101280.13;5031863;28;20487;-51
2021/12/14 05:03:14;;;;;;;0.30;0.20;;;;;;;7.93;100.00;101288.09;5032042;28;20551;-51
2021/12/14 05:05:48;;;;;;;0.30;0.20;;;;;;;7.91;100.00;101287.22;5031859;28;20493;-49
2021/12/14 05:11:07;;;;;;;0.23;0.17;;;;;;;8.01;100.00;101254.53;5011149;28;20872;-50
2021/12/14 05:13:44;;;;;;;0.30;0.30;;;;;;;8.03;100.00;101250.13;5031964;28;20522;-50
2021/12/14 05:16:23;;;;;;;0.23;0.20;;;;;;;7.98;100.00;101243.97;5031831;28;21011;-50
2021/12/14 05:18:56;;;;;;;0.30;0.20;;;;;;;8.02;100.00;101240.41;5031806;28;20513;-51
2021/12/14 05:21:30;;;;;;;0.30;0.20;;;;;;;8.10;100.00;101255.41;5031796;28;20870;-51
2021/12/14 05:23:58;;;;;;;1.40;1.40;;;;;;;8.14;100.00;101252.75;5031783;28;20439;-50
2021/12/14 05:26:25;;;;;;;1.57;0.97;;;;;;;8.11;100.00;101241.28;5031822;28;20497;-51
2021/12/14 05:28:55;;;;;;;0.30;0.20;;;;;;;8.15;100.00;101262.44;5036455;28;20439;-50
2021/12/14 05:31:22;;;;;;;0.30;0.20;;;;;;;8.53;100.00;101266.75;5040526;28;20526;-51
2021/12/14 05:33:50;;;;;;;0.33;0.30;;;;;;;8.25;100.00;101277.44;5031558;28;20451;-50
2021/12/14 05:36:18;;;;;;;0.30;0.20;;;;;;;8.25;100.00;101269.50;5031610;28;20491;-50
2021/12/14 05:39:22;;;;;;;1.63;1.63;;;;;;;8.17;100.00;101263.31;5030450;28;20520;-51
2021/12/14 05:44:44;;;;;;;0.30;0.20;;;;;;;8.23;100.00;101273.91;5034713;28;20479;-50
2021/12/14 05:47:16;;;;;;;0.30;0.20;;;;;;;8.21;100.00;101280.06;5023452;28;20933;-50
2021/12/14 05:49:46;;;;;;;3.03;1.30;;;;;;;8.23;100.00;101294.22;5035041;28;20458;-50
2021/12/14 05:52:17;;;;;;;0.30;0.20;;;;;;;8.24;100.00;101303.94;5035039;28;21009;-50
2021/12/14 05:54:44;;;;;;;0.30;0.20;;;;;;;8.25;100.00;101303.91;5035286;28;20451;-51
2021/12/14 05:57:19;;;;;;;0.30;0.20;;;;;;;8.38;100.00;101312.75;5035041;28;21052;-50
2021/12/14 05:59:47;;;;;;;0.30;0.20;;;;;;;8.36;100.00;101313.63;5035045;28;20472;-51
2021/12/14 06:02:14;;;;;;;0.30;0.20;;;;;;;8.34;100.00;101303.03;5034673;28;20888;-51
2021/12/14 06:04:46;;;;;;;0.30;0.20;;;;;;;8.22;100.00;101300.38;5035105;28;20447;-50
2021/12/14 06:07:14;;;;;;;0.60;0.60;;;;;;;8.25;100.00;101301.28;5034916;28;20444;-51
2021/12/14 06:09:44;;;;;;;0.30;0.13;;;;;;;8.30;100.00;101303.91;5033901;28;20456;-51
2021/12/14 06:12:15;;;;;;;0.30;0.20;;;;;;;8.27;100.00;101304.78;5034734;28;20495;-51
2021/12/14 06:14:54;;;;;;;0.27;0.20;;;;;;;8.32;100.00;101307.41;5034645;28;20451;-51
2021/12/14 06:17:33;;;;;;;0.67;0.67;;;;;;;8.38;100.00;101311.88;5034845;28;20934;-50
2021/12/14 06:20:10;;;;;;;0.30;0.20;;;;;;;8.35;100.00;101314.50;5034686;28;20829;-50
2021/12/14 06:22:38;;;;;;;0.30;0.20;;;;;;;8.32;100.00;101312.72;5034603;28;20468;-50
2021/12/14 06:25:13;;;;;;;0.30;0.20;;;;;;;8.30;100.00;101322.44;5034517;28;20447;-50
2021/12/14 06:27:39;;;;;;;0.30;0.20;;;;;;;8.30;100.00;101311.84;5034725;28;20443;-50
2021/12/14 06:30:17;;;;;;;0.30;0.20;;;;;;;8.32;100.00;101318.91;5047797;28;20504;-51
2021/12/14 06:32:54;;;;;;;0.30;0.20;;;;;;;8.40;100.00;101326.00;5034543;28;20495;-51
2021/12/14 06:35:20;;;;;;;1.90;0.50;;;;;;;8.32;100.00;101323.31;5034032;28;20798;-50
2021/12/14 06:40:51;;;;;;;0.83;0.83;;;;;;;8.35;100.00;101341.88;5023090;28;20479;-51
2021/12/14 06:43:41;;;;;;;0.30;0.30;;;;;;;8.31;100.00;101342.75;5033877;28;20475;-51
2021/12/14 06:46:15;;;;;;;0.30;0.20;;;;;;;8.24;100.00;101346.31;5033207;28;20967;-50
2021/12/14 06:48:44;;;;;;;1.97;1.87;;;;;;;8.29;100.00;101331.28;5034229;28;20454;-50
2021/12/14 06:51:21;;;;;;;0.30;0.20;;;;;;;8.29;100.00;101333.91;5034137;28;20470;-50
2021/12/14 06:53:51;;;;;;;0.30;0.20;;;;;;;8.20;100.00;101326.88;5034076;28;20925;-50
2021/12/14 06:56:22;;;;;;;0.30;0.20;;;;;;;8.24;100.00;101331.28;5033463;28;20523;-51
2021/12/14 06:59:02;;;;;;;0.30;0.20;;;;;;;8.31;100.00;101332.16;5034643;28;20525;-48
2021/12/14 07:01:33;;;;;;;1.80;1.70;;;;;;;8.69;100.00;101342.66;5033943;28;20521;-48
2021/12/14 07:04:07;;;;;;;0.30;0.20;;;;;;;8.58;100.00;101342.69;5034033;28;20472;-48
2021/12/14 07:06:47;;;;;;;0.30;0.20;;;;;;;8.65;100.00;101353.28;5033848;28;20861;-49
2021/12/14 07:09:45;;;;;;;0.30;0.20;;;;;;;8.55;100.00;101349.78;5033981;28;20842;-47
2021/12/14 07:12:16;;;;;;;0.30;0.20;;;;;;;8.53;100.00;101355.09;5028976;28;20471;-47
2021/12/14 07:14:49;;;;;;;0.30;0.20;;;;;;;8.43;100.00;101369.25;5034744;28;20510;-48
2021/12/14 07:17:20;;;;;;;0.30;0.20;;;;;;;8.41;100.00;101365.72;5032616;28;20553;-49
2021/12/14 07:19:49;;;;;;;0.30;0.20;;;;;;;8.39;100.00;101361.31;5033732;28;20502;-48
2021/12/14 07:22:25;;;;;;;0.30;0.20;;;;;;;8.31;100.00;101345.38;5033497;28;20522;-48
2021/12/14 07:25:15;;;;;;;0.30;0.20;;;;;;;8.33;100.00;101347.16;5033527;28;20527;-48
2021/12/14 07:27:45;;;;;;;0.30;0.20;;;;;;;8.26;100.00;101355.13;5027829;28;20517;-48
2021/12/14 07:30:57;;;;;;;0.30;0.20;;;;;;;8.27;100.00;101359.53;5046713;28;20823;-48
2021/12/14 07:33:31;;;;;;;0.30;0.20;;;;;;;8.28;100.00;101366.59;5031916;28;20475;-48
2021/12/14 07:36:07;;;;;;;0.30;0.20;;;;;;;8.27;100.00;101372.78;5033231;28;20526;-48
2021/12/14 07:38:45;;;;;;;0.30;0.20;;;;;;;8.27;100.00;101371.00;5033311;28;20452;-48
2021/12/14 07:41:15;;;;;;;0.30;0.20;;;;;;;8.24;100.00;101367.50;5033058;28;20825;-48
2021/12/14 07:43:54;;;;;;;0.30;0.30;;;;;;;8.15;100.00;101364.84;5032961;28;20509;-48
2021/12/14 07:46:38;;;;;;;0.30;0.20;;;;;;;8.22;100.00;101369.25;5033358;28;20444;-48
2021/12/14 07:49:31;;;;;;;0.30;0.20;;;;;;;8.25;100.00;101364.84;5033122;28;20479;-48
2021/12/14 07:52:02;;;;;;;0.30;0.20;;;;;;;8.26;100.00;101371.91;5020591;28;20510;-48
2021/12/14 07:54:38;;;;;;;0.50;0.50;;;;;;;8.24;100.00;101363.09;5030755;28;20448;-48
2021/12/14 07:57:13;;;;;;;0.30;0.20;;;;;;;8.29;100.00;101360.41;5024599;28;20615;-47
2021/12/14 07:59:44;;;;;;;0.50;0.50;;;;;;;8.32;100.00;101371.00;5032688;28;20968;-47
2021/12/14 08:02:42;;;;;;;0.73;0.70;;;;;;;8.37;100.00;101369.28;5033085;28;20533;-48
2021/12/14 08:05:15;;;;;;;2.10;1.90;;;;;;;8.38;100.00;101373.69;5031564;28;20448;-48
2021/12/14 08:07:48;;;;;;;0.30;0.20;;;;;;;8.33;100.00;101370.09;5032704;28;20448;-48
2021/12/14 08:10:24;;;;;;;2.73;1.00;;;;;;;8.45;100.00;101367.47;5032662;28;20448;-48
2021/12/14 08:12:56;;;;;;;0.30;0.20;;;;;;;8.53;100.00;101368.34;5032543;28;20980;-47
2021/12/14 08:15:29;;;;;;;0.30;0.20;;;;;;;8.56;100.00;101370.97;5032404;28;20485;-48
2021/12/14 08:18:02;;;;;;;0.30;0.20;;;;;;;8.60;100.00;101361.25;5032361;28;20490;-48
2021/12/14 08:20:29;;;;;;;0.30;0.20;;;;;;;8.79;100.00;101360.31;5032516;28;20444;-48
2021/12/14 08:23:10;;;;;;;1.63;1.63;;;;;;;8.78;100.00;101362.97;5032476;28;20973;-48
2021/12/14 08:25:40;;;;;;;5.50;2.00;;;;;;;8.70;100.00;101362.97;5032453;28;20525;-50
2021/12/14 08:28:07;;;;;;;0.30;0.20;;;;;;;8.79;100.00;101367.38;5032387;28;20497;-48
2021/12/14 08:30:36;;;;;;;0.50;0.50;;;;;;;8.75;100.00;101373.56;5045642;28;20458;-48
2021/12/14 08:33:04;;;;;;;0.50;0.50;;;;;;;8.83;100.00;101374.41;5032309;28;20574;-48
2021/12/14 08:35:32;;;;;;;0.30;0.20;;;;;;;8.78;100.00;101382.41;5032257;28;20493;-48
2021/12/14 08:38:02;;;;;;;0.30;0.20;;;;;;;8.81;100.00;101381.50;5032078;28;20911;-50
2021/12/14 08:40:40;;;;;;;0.30;0.20;;;;;;;8.84;100.00;101389.44;5032129;28;20865;-48
2021/12/14 08:43:23;;;;;;;0.30;0.20;;;;;;;8.93;100.00;101389.41;5032401;28;20521;-48
2021/12/14 08:46:01;;;;;;;0.30;0.20;;;;;;;8.98;100.00;101397.34;5032393;28;20487;-48
2021/12/14 08:48:33;;;;;;;0.30;0.20;;;;;;;9.00;100.00;101403.50;5032193;28;20454;-48
2021/12/14 08:51:14;;;;;;;3.50;1.23;;;;;;;8.91;100.00;101396.50;5032099;28;20517;-48
2021/12/14 08:54:09;;;;;;;0.30;0.20;;;;;;;8.92;100.00;101390.31;5031006;28;20873;-48
2021/12/14 08:56:43;;;;;;;0.30;0.20;;;;;;;8.93;100.00;101385.88;5028976;28;20487;-48
2021/12/14 08:59:10;;;;;;;0.57;0.57;;;;;;;8.96;100.00;101389.38;5032127;28;20498;-48
2021/12/14 09:01:40;;;;;;;0.30;0.20;;;;;;;8.94;100.00;101396.47;5031838;28;20984;-48
2021/12/14 09:04:16;;;;;;;0.30;0.20;;;;;;;8.95;100.00;101395.59;5032151;28;20472;-48
2021/12/14 09:06:48;;;;;;;0.30;0.20;;;;;;;9.01;100.00;101394.66;5032264;28;20436;-48
2021/12/14 09:09:17;;;;;;;0.30;0.20;;;;;;;8.96;100.00;101404.41;5032016;28;20518;-48
2021/12/14 09:11:47;;;;;;;0.87;0.87;;;;;;;9.04;100.00;101403.47;5031785;28;20467;-49
2021/12/14 09:14:16;;;;;;;0.30;0.20;;;;;;;9.35;100.00;101403.34;5032072;28;20478;-49
2021/12/14 09:16:48;;;;;;;0.30;0.20;;;;;;;9.23;100.00;101406.94;5032429;28;20530;-49
2021/12/14 09:19:20;;;;;;;0.93;0.93;;;;;;;9.19;100.00;101416.69;5034631;28;20451;-48
2021/12/14 09:21:49;;;;;;;0.30;0.20;;;;;;;9.17;100.00;101405.19;5035800;28;20471;-48
2021/12/14 09:24:20;;;;;;;0.30;0.20;;;;;;;9.33;100.00;101413.09;5035814;28;20534;-48
2021/12/14 09:26:52;;;;;;;1.97;0.47;;;;;;;9.14;100.00;101413.16;5035793;28;20945;-48
2021/12/14 09:29:21;;;;;;;0.30;0.20;;;;;;;9.27;100.00;101415.75;5043704;28;20479;-49
2021/12/14 09:31:51;;;;;;;0.30;0.20;;;;;;;9.15;100.00;101425.53;5040343;28;20528;-48
2021/12/14 09:34:22;;;;;;;0.30;0.20;;;;;;;9.04;100.00;101426.47;5035807;28;20456;-48
2021/12/14 09:36:51;;;;;;;0.40;0.40;;;;;;;9.02;100.00;101421.16;5035206;28;20984;-48
2021/12/14 09:39:31;;;;;;;1.23;0.77;;;;;;;9.07;100.00;101427.34;5035950;28;20505;-48
2021/12/14 09:42:03;;;;;;;0.30;0.20;;;;;;;9.08;100.00;101428.25;5035347;28;20872;-48
2021/12/14 09:44:33;;;;;;;5.40;1.17;;;;;;;9.03;100.00;101436.19;5036264;28;20483;-48
2021/12/14 09:47:06;;;;;;;0.40;0.30;;;;;;;9.07;100.00;101435.31;5022479;28;20452;-48
2021/12/14 09:49:33;;;;;;;0.40;0.40;;;;;;;9.13;100.00;101437.03;5035424;28;20494;-48
2021/12/14 09:52:07;;;;;;;0.30;0.20;;;;;;;9.23;100.00;101438.78;5035113;28;20529;-48
2021/12/14 09:54:34;;;;;;;0.30;0.20;;;;;;;9.27;100.00;101440.53;5035244;28;20505;-48
2021/12/14 09:57:15;;;;;;;0.30;0.20;;;;;;;9.18;100.00;101425.53;5035255;28;20487;-47
2021/12/14 09:59:43;;;;;;;0.30;0.30;;;;;;;9.15;100.00;101428.19;5034915;28;20976;-48
2021/12/14 10:02:16;;;;;;;0.30;0.20;;;;;;;9.14;100.00;101422.91;5035059;28;20471;-48
2021/12/14 10:04:47;;;;;;;0.30;0.20;;;;;;;9.03;100.00;101419.41;5035109;28;20448;-48
2021/12/14 10:07:14;;;;;;;0.30;0.20;;;;;;;9.08;100.00;101418.50;5035085;28;20444;-48
2021/12/14 10:09:45;;;;;;;0.53;0.53;;;;;;;9.17;100.00;101425.53;5034850;28;20448;-48
2021/12/14 10:15:15;;;;;;;0.30;0.20;;;;;;;9.32;100.00;101428.13;5034882;28;20935;-48
2021/12/14 10:17:44;;;;;;;0.30;0.20;;;;;;;9.26;100.00;101432.56;5035119;28;21061;-48
2021/12/14 10:20:18;;;;;;;0.30;0.20;;;;;;;9.37;100.00;101430.75;5035179;28;20452;-48
2021/12/14 10:22:45;;;;;;;0.30;0.20;;;;;;;9.27;100.00;101429.91;5034914;28;20459;-48
2021/12/14 10:25:16;;;;;;;0.30;0.20;;;;;;;9.16;100.00;101429.94;5034488;28;20475;-48
2021/12/14 10:27:45;;;;;;;0.30;0.20;;;;;;;9.18;100.00;101438.81;5034960;28;20440;-48
2021/12/14 10:30:28;;;;;;;1.90;1.80;;;;;;;9.24;100.00;101429.06;5047898;28;20447;-48
2021/12/14 10:32:56;;;;;;;0.40;0.40;;;;;;;9.39;100.00;101421.00;5034811;28;20463;-48
2021/12/14 10:35:30;;;;;;;0.30;0.20;;;;;;;9.29;100.00;101413.97;5034258;28;20476;-48
2021/12/14 10:38:11;;;;;;;0.30;0.20;;;;;;;9.38;100.00;101414.81;5034457;28;20545;-48
2021/12/14 10:43:30;;;;;;;1.73;1.63;;;;;;;9.44;100.00;101413.88;5033919;28;20482;-47
2021/12/14 10:46:02;;;;;;;0.30;0.20;;;;;;;9.67;100.00;101422.59;5034308;28;20479;-48
2021/12/14 10:48:34;;;;;;;0.30;0.20;;;;;;;9.53;100.00;101416.50;5034289;28;20441;-48
2021/12/14 10:51:07;;;;;;;0.70;0.70;;;;;;;9.43;100.00;101409.47;5034236;28;20820;-48
2021/12/14 10:53:34;;;;;;;0.30;0.20;;;;;;;9.40;100.00;101430.72;5033953;28;20809;-48
2021/12/14 10:56:13;;;;;;;0.30;0.20;;;;;;;9.37;100.00;101428.09;5034751;28;20463;-49
2021/12/14 10:58:43;;;;;;;0.30;0.20;;;;;;;9.27;100.00;101432.56;5034018;28;20503;-48
2021/12/14 11:01:20;;;;;;;0.30;0.20;;;;;;;9.42;100.00;101424.50;5033800;28;20418;-48
2021/12/14 11:03:53;;;;;;;0.30;0.20;;;;;;;9.38;100.00;101422.78;5032619;28;20517;-48
2021/12/14 11:06:27;;;;;;;0.40;0.30;;;;;;;9.39;100.00;101413.94;5033614;28;20945;-48
2021/12/14 11:11:39;;;;;;;0.30;0.20;;;;;;;9.57;100.00;101407.63;5033861;28;20537;-48
2021/12/14 11:14:15;;;;;;;0.30;0.20;;;;;;;9.65;100.00;101412.88;5033757;28;20483;-48
2021/12/14 11:19:43;;;;;;;0.30;0.20;;;;;;;9.66;100.00;101418.19;5028347;28;20502;-48
2021/12/14 11:22:12;;;;;;;0.30;0.20;;;;;;;9.75;100.00;101412.81;5033522;28;20438;-48
2021/12/14 11:24:40;;;;;;;0.97;0.97;;;;;;;9.82;100.00;101418.06;5033428;28;20487;-48
2021/12/14 11:27:17;;;;;;;0.30;0.20;;;;;;;9.74;100.00;101415.50;5033296;28;20422;-47
2021/12/14 11:29:44;;;;;;;0.30;0.20;;;;;;;9.99;100.00;101413.50;5044806;28;20441;-48
2021/12/14 11:32:20;;;;;;;4.57;3.50;;;;;;;9.85;100.00;101423.34;5035210;28;20467;-48
2021/12/14 11:34:48;;;;;;;0.30;0.20;;;;;;;9.95;100.00;101409.13;5033407;28;20494;-48
2021/12/14 11:37:32;;;;;;;0.30;0.20;;;;;;;9.75;100.00;101402.19;5033073;28;21055;-48
2021/12/14 11:40:01;;;;;;;0.30;0.20;;;;;;;9.95;100.00;101401.16;5033346;28;20476;-48
2021/12/14 11:42:28;;;;;;;0.30;0.20;;;;;;;9.79;100.00;101401.28;5032351;28;20544;-48
2021/12/14 11:45:00;;;;;;;0.30;0.20;;;;;;;9.78;100.00;101401.28;5033145;28;20932;-48
2021/12/14 11:47:42;;;;;;;0.30;0.20;;;;;;;9.82;100.00;101400.38;5033110;28;20421;-48
2021/12/14 11:50:33;;;;;;;0.30;0.20;;;;;;;9.72;100.00;101391.56;5032839;28;20488;-48
2021/12/14 11:53:05;;;;;;;0.30;0.20;;;;;;;9.69;100.00;101396.03;5033078;28;20439;-48
2021/12/14 11:55:46;;;;;;;0.30;0.20;;;;;;;9.67;100.00;101390.75;5032914;28;20422;-48
2021/12/14 11:58:22;;;;;;;0.30;0.20;;;;;;;9.83;100.00;101385.31;5032791;28;20530;-48
2021/12/14 12:01:06;;;;;;;0.30;0.23;;;;;;;9.74;100.00;101389.81;5032920;28;20426;-48
2021/12/14 12:03:39;;;;;;;0.30;0.20;;;;;;;9.61;100.00;101387.28;5032818;28;20471;-48
2021/12/14 12:06:14;;;;;;;0.30;0.20;;;;;;;9.61;100.00;101377.53;5032751;28;20974;-48
2021/12/14 12:11:41;;;;;;;0.40;0.40;;;;;;;9.57;100.00;101385.50;5021404;28;21026;-48
2021/12/14 12:14:22;;;;;;;0.30;0.20;;;;;;;9.52;100.00;101388.19;5032793;28;20447;-48
2021/12/14 12:16:53;;;;;;;0.67;0.67;;;;;;;9.50;100.00;101387.34;5032659;28;20924;-48
2021/12/14 12:19:28;;;;;;;0.30;0.20;;;;;;;9.76;100.00;101388.03;5032258;28;20954;-49
2021/12/14 12:22:03;;;;;;;0.30;0.20;;;;;;;9.50;100.00;101384.69;5032592;28;20473;-47
2021/12/14 12:24:32;;;;;;;0.30;0.20;;;;;;;9.47;100.00;101382.06;5032528;28;20443;-48
2021/12/14 12:27:44;;;;;;;0.30;0.20;;;;;;;9.54;100.00;101378.44;5032219;28;20447;-48
2021/12/14 12:30:31;;;;;;;0.30;0.20;;;;;;;9.36;100.00;101378.56;4989559;28;20449;-48
2021/12/14 12:33:16;;;;;;;0.30;0.20;;;;;;;9.39;100.00;101374.13;5032440;28;20967;-48
2021/12/14 12:36:21;;;;;;;0.30;0.30;;;;;;;9.37;100.00;101373.25;5032782;28;20464;-49
2021/12/14 12:39:02;;;;;;;0.40;0.40;;;;;;;9.42;100.00;101381.19;4990544;28;20497;-48
2021/12/14 12:41:47;;;;;;;0.30;0.20;;;;;;;9.59;100.00;101376.63;4990313;28;20441;-48
2021/12/14 12:44:29;;;;;;;0.30;0.20;;;;;;;9.87;100.00;101381.72;5016723;28;20451;-50